Time;durP1;ratioP1;P1;durP2;ratioP2;P2;SDS_P1;SDS_P2;PMS_P1;PMS_P2;Temp;Humidity;BMP_temperature;BMP_pressure;BME280_temperature;BME280_humidity;BME280_pressure;Samples;Min_cycle;Max_cycle;Signal;HPM_P1;HPM_P2
2023/07/22 00:00:48;;;;;;;10.48;5.13;;;;;;;;;;5105368;27;20050;-74
2023/07/22 00:03:14;;;;;;;9.52;4.90;;;;;;;;;;5086760;27;20055;-74
2023/07/22 00:05:40;;;;;;;9.63;5.05;;;;;;;;;;5103525;27;20035;-74
2023/07/22 00:08:06;;;;;;;10.43;4.80;;;;;;;;;;5104857;27;20046;-74
2023/07/22 00:10:32;;;;;;;9.98;5.05;;;;;;;;;;5085368;27;20065;-74
2023/07/22 00:12:58;;;;;;;10.68;4.60;;;;;;;;;;5104504;27;20047;-74
2023/07/22 00:15:25;;;;;;;10.25;4.78;;;;;;;;;;5085576;27;20070;-74
2023/07/22 00:17:51;;;;;;;8.63;4.50;;;;;;;;;;5105455;27;20039;-76
2023/07/22 00:20:17;;;;;;;9.45;4.47;;;;;;;;;;5084812;27;20140;-74
2023/07/22 00:22:43;;;;;;;8.70;4.32;;;;;;;;;;5086488;27;20559;-74
2023/07/22 00:25:10;;;;;;;8.30;3.75;;;;;;;;;;5086009;27;20465;-74
2023/07/22 00:27:37;;;;;;;9.02;3.42;;;;;;;;;;5081272;27;20050;-74
2023/07/22 00:30:04;;;;;;;9.10;3.60;;;;;;;;;;5087344;27;20049;-74
2023/07/22 00:32:30;;;;;;;7.75;4.15;;;;;;;;;;5087087;27;21867;-74
2023/07/22 00:34:56;;;;;;;8.63;3.40;;;;;;;;;;5086630;27;20051;-74
2023/07/22 00:37:22;;;;;;;7.75;3.95;;;;;;;;;;5084645;27;20060;-74
2023/07/22 00:39:48;;;;;;;13.57;5.07;;;;;;;;;;5086759;27;20043;-74
2023/07/22 00:42:15;;;;;;;13.98;5.30;;;;;;;;;;5102488;27;20071;-74
2023/07/22 00:44:41;;;;;;;10.35;5.57;;;;;;;;;;5085079;27;20042;-74
2023/07/22 00:47:07;;;;;;;14.90;5.82;;;;;;;;;;5071733;27;20744;-74
2023/07/22 00:49:33;;;;;;;12.63;5.53;;;;;;;;;;5086114;27;20039;-74
2023/07/22 00:52:04;;;;;;;10.70;5.22;;;;;;;;;;5085867;27;20047;-74
2023/07/22 00:54:30;;;;;;;13.15;5.75;;;;;;;;;;5084935;27;20429;-75
2023/07/22 00:56:57;;;;;;;14.45;6.25;;;;;;;;;;5083365;27;20082;-75
2023/07/22 00:59:23;;;;;;;10.82;5.78;;;;;;;;;;5101761;27;20146;-75
2023/07/22 01:01:49;;;;;;;10.27;4.95;;;;;;;;;;5080470;27;20478;-74
2023/07/22 01:04:16;;;;;;;11.27;5.95;;;;;;;;;;5101830;27;20042;-75
2023/07/22 01:06:44;;;;;;;9.80;5.22;;;;;;;;;;5101439;27;20043;-74
2023/07/22 01:09:10;;;;;;;10.60;6.00;;;;;;;;;;5103097;27;20065;-75
2023/07/22 01:11:36;;;;;;;14.90;5.75;;;;;;;;;;5104308;27;21744;-75
2023/07/22 01:14:03;;;;;;;10.43;5.68;;;;;;;;;;5086733;27;20039;-74
2023/07/22 01:16:30;;;;;;;9.93;5.70;;;;;;;;;;5102195;27;20050;-74
2023/07/22 01:18:56;;;;;;;12.15;6.15;;;;;;;;;;5086841;27;20699;-74
2023/07/22 01:21:23;;;;;;;11.70;5.75;;;;;;;;;;5104634;27;20039;-74
2023/07/22 01:23:50;;;;;;;11.68;5.55;;;;;;;;;;5102599;27;20066;-74
2023/07/22 01:26:16;;;;;;;12.95;5.80;;;;;;;;;;5083544;27;20130;-74
2023/07/22 01:28:42;;;;;;;9.25;5.05;;;;;;;;;;5103883;27;20444;-75
2023/07/22 01:31:08;;;;;;;11.82;5.18;;;;;;;;;;5083099;27;20100;-74
2023/07/22 01:33:34;;;;;;;20.60;5.93;;;;;;;;;;5085238;27;20809;-75
2023/07/22 01:36:01;;;;;;;11.20;5.65;;;;;;;;;;5102362;27;20159;-75
2023/07/22 01:38:29;;;;;;;12.13;5.50;;;;;;;;;;5083722;27;20463;-75
2023/07/22 01:40:55;;;;;;;12.45;5.30;;;;;;;;;;5084167;27;20039;-74
2023/07/22 01:43:21;;;;;;;8.15;5.10;;;;;;;;;;5102138;27;20417;-75
2023/07/22 01:45:47;;;;;;;13.02;5.05;;;;;;;;;;5083802;27;20072;-74
2023/07/22 01:48:13;;;;;;;14.57;5.43;;;;;;;;;;5084450;27;20051;-75
2023/07/22 01:50:39;;;;;;;12.70;5.47;;;;;;;;;;5101971;27;20043;-75
2023/07/22 01:53:06;;;;;;;10.05;5.68;;;;;;;;;;5101203;27;20085;-74
2023/07/22 01:55:32;;;;;;;10.88;5.00;;;;;;;;;;5106393;27;20161;-75
2023/07/22 01:57:58;;;;;;;14.65;5.35;;;;;;;;;;5086076;28;20138;-74
2023/07/22 02:00:25;;;;;;;9.55;5.57;;;;;;;;;;5105113;27;20091;-75
2023/07/22 02:02:52;;;;;;;9.43;4.85;;;;;;;;;;5083716;27;22228;-74
2023/07/22 02:05:18;;;;;;;11.52;5.40;;;;;;;;;;5106622;27;20499;-75
2023/07/22 02:07:44;;;;;;;14.18;5.25;;;;;;;;;;5103697;27;20039;-74
2023/07/22 02:10:10;;;;;;;12.90;5.40;;;;;;;;;;5104185;27;20073;-75
2023/07/22 02:12:36;;;;;;;19.52;5.53;;;;;;;;;;5104655;27;20047;-74
2023/07/22 02:15:03;;;;;;;10.60;6.10;;;;;;;;;;5104404;27;20043;-74
2023/07/22 02:17:30;;;;;;;9.80;4.90;;;;;;;;;;5087371;28;20036;-74
2023/07/22 02:19:57;;;;;;;9.45;4.18;;;;;;;;;;5103845;27;21053;-74
2023/07/22 02:22:23;;;;;;;10.50;4.78;;;;;;;;;;5087533;28;20046;-75
2023/07/22 02:24:49;;;;;;;9.20;4.78;;;;;;;;;;5078321;27;20053;-74
2023/07/22 02:27:15;;;;;;;8.50;4.63;;;;;;;;;;5081426;28;20572;-75
2023/07/22 02:29:41;;;;;;;7.05;4.10;;;;;;;;;;5101763;27;20043;-75
2023/07/22 02:32:08;;;;;;;11.40;5.03;;;;;;;;;;5103057;27;20044;-75
2023/07/22 02:34:34;;;;;;;10.63;4.53;;;;;;;;;;5101046;27;20089;-74
2023/07/22 02:37:00;;;;;;;8.45;4.15;;;;;;;;;;5082860;28;20922;-75
2023/07/22 02:39:26;;;;;;;7.72;4.30;;;;;;;;;;5100886;27;20081;-75
2023/07/22 02:41:52;;;;;;;8.32;4.82;;;;;;;;;;5102071;27;20112;-75
2023/07/22 02:44:18;;;;;;;11.82;4.72;;;;;;;;;;5099528;27;20058;-74
2023/07/22 02:46:44;;;;;;;12.27;4.85;;;;;;;;;;5101815;27;20043;-74
2023/07/22 02:49:10;;;;;;;10.63;5.13;;;;;;;;;;5102318;27;20039;-74
2023/07/22 02:51:36;;;;;;;9.85;4.82;;;;;;;;;;5080609;27;20123;-75
2023/07/22 02:54:03;;;;;;;7.15;4.72;;;;;;;;;;5101849;27;20043;-74
2023/07/22 02:56:29;;;;;;;8.57;4.60;;;;;;;;;;5085659;27;20411;-75
2023/07/22 02:58:55;;;;;;;8.95;5.20;;;;;;;;;;5099975;27;20055;-74
2023/07/22 03:01:21;;;;;;;10.80;4.90;;;;;;;;;;5065083;27;20039;-75
2023/07/22 03:03:47;;;;;;;11.15;4.53;;;;;;;;;;5084165;27;20784;-75
2023/07/22 03:06:14;;;;;;;8.63;4.68;;;;;;;;;;5100852;27;20433;-75
2023/07/22 03:08:40;;;;;;;10.95;5.40;;;;;;;;;;5083215;28;20043;-75
2023/07/22 03:11:06;;;;;;;15.68;5.20;;;;;;;;;;5086463;27;20039;-74
2023/07/22 03:13:34;;;;;;;11.45;5.18;;;;;;;;;;5052647;27;20050;-74
2023/07/22 03:16:03;;;;;;;12.98;5.10;;;;;;;;;;5103800;27;20039;-75
2023/07/22 03:18:30;;;;;;;9.90;5.47;;;;;;;;;;5086541;28;21298;-75
2023/07/22 03:20:57;;;;;;;14.18;4.78;;;;;;;;;;5104507;27;20092;-74
2023/07/22 03:23:23;;;;;;;12.15;5.50;;;;;;;;;;5104740;27;20043;-74
2023/07/22 03:25:49;;;;;;;20.63;6.22;;;;;;;;;;5085488;28;20085;-75
2023/07/22 03:28:16;;;;;;;14.30;6.03;;;;;;;;;;5108885;27;20034;-75
2023/07/22 03:30:42;;;;;;;20.27;5.70;;;;;;;;;;5074890;27;20171;-75
2023/07/22 03:33:08;;;;;;;12.73;6.50;;;;;;;;;;5089427;27;20039;-75
2023/07/22 03:35:36;;;;;;;12.30;5.72;;;;;;;;;;5089862;27;20080;-74
2023/07/22 03:38:02;;;;;;;18.42;5.72;;;;;;;;;;5073487;27;20384;-74
2023/07/22 03:40:30;;;;;;;15.88;6.03;;;;;;;;;;5105231;27;20043;-75
2023/07/22 03:42:57;;;;;;;13.85;6.30;;;;;;;;;;5091034;27;20126;-75
2023/07/22 03:45:23;;;;;;;12.27;6.65;;;;;;;;;;5088360;27;20076;-75
2023/07/22 03:47:59;;;;;;;17.60;6.38;;;;;;;;;;5108435;27;20039;-75
2023/07/22 03:50:25;;;;;;;14.00;6.60;;;;;;;;;;5106910;27;20042;-75
2023/07/22 03:52:52;;;;;;;14.02;6.45;;;;;;;;;;5089364;27;20047;-75
2023/07/22 03:55:19;;;;;;;15.32;5.80;;;;;;;;;;5106949;27;20208;-75
2023/07/22 03:57:45;;;;;;;10.27;5.63;;;;;;;;;;5105430;27;20035;-74
2023/07/22 04:00:12;;;;;;;11.23;6.13;;;;;;;;;;5105281;27;20078;-75
2023/07/22 04:02:39;;;;;;;14.35;5.65;;;;;;;;;;5086557;27;20050;-74
2023/07/22 04:05:05;;;;;;;13.70;5.90;;;;;;;;;;5087383;27;20051;-75
2023/07/22 04:07:31;;;;;;;11.48;5.25;;;;;;;;;;5105398;27;20035;-75
2023/07/22 04:09:57;;;;;;;12.85;5.88;;;;;;;;;;5083188;27;20462;-74
2023/07/22 04:12:23;;;;;;;13.18;6.38;;;;;;;;;;5087975;27;20047;-74
2023/07/22 04:14:49;;;;;;;20.50;5.35;;;;;;;;;;5087471;27;20893;-75
2023/07/22 04:17:16;;;;;;;13.55;5.68;;;;;;;;;;5104070;27;20138;-75
2023/07/22 04:19:43;;;;;;;14.10;5.47;;;;;;;;;;5106650;27;20059;-74
2023/07/22 04:22:09;;;;;;;22.30;6.80;;;;;;;;;;5087614;27;20043;-75
2023/07/22 04:24:35;;;;;;;13.30;5.28;;;;;;;;;;5104616;27;20165;-75
2023/07/22 04:27:01;;;;;;;16.50;5.80;;;;;;;;;;5088996;27;20044;-74
2023/07/22 04:29:28;;;;;;;9.88;4.93;;;;;;;;;;5086494;27;20059;-74
2023/07/22 04:31:58;;;;;;;14.70;6.28;;;;;;;;;;5084697;27;20088;-75
2023/07/22 04:34:25;;;;;;;16.35;6.15;;;;;;;;;;5101929;27;20070;-74
2023/07/22 04:36:51;;;;;;;16.73;5.82;;;;;;;;;;5086437;27;20075;-75
2023/07/22 04:39:17;;;;;;;16.77;5.80;;;;;;;;;;5101566;27;20096;-75
2023/07/22 04:41:43;;;;;;;12.27;6.32;;;;;;;;;;5102981;27;20452;-75
2023/07/22 04:44:10;;;;;;;11.93;6.18;;;;;;;;;;5085153;27;20065;-74
2023/07/22 04:46:36;;;;;;;11.88;6.07;;;;;;;;;;5085429;27;21879;-75
2023/07/22 04:49:02;;;;;;;14.85;5.78;;;;;;;;;;5101677;27;20043;-75
2023/07/22 04:51:28;;;;;;;12.15;5.70;;;;;;;;;;5085572;27;20062;-74
2023/07/22 04:53:54;;;;;;;17.70;6.18;;;;;;;;;;5104613;27;20047;-74
2023/07/22 04:56:21;;;;;;;14.52;6.03;;;;;;;;;;5098383;27;20179;-75
2023/07/22 04:58:49;;;;;;;13.57;6.05;;;;;;;;;;5082387;28;20245;-75
2023/07/22 05:01:15;;;;;;;14.52;6.43;;;;;;;;;;5082939;28;20047;-75
2023/07/22 05:03:41;;;;;;;16.65;6.47;;;;;;;;;;5080323;27;20143;-75
2023/07/22 05:06:08;;;;;;;17.63;6.43;;;;;;;;;;5083502;28;20040;-75
2023/07/22 05:08:34;;;;;;;13.43;6.35;;;;;;;;;;5079067;28;20078;-75
2023/07/22 05:11:00;;;;;;;16.40;6.25;;;;;;;;;;5083523;28;20542;-75
2023/07/22 05:13:26;;;;;;;11.10;6.38;;;;;;;;;;5082321;28;20074;-75
2023/07/22 05:15:52;;;;;;;13.77;5.72;;;;;;;;;;5080151;27;20122;-75
2023/07/22 05:18:19;;;;;;;19.15;5.72;;;;;;;;;;5081867;28;20540;-74
2023/07/22 05:20:45;;;;;;;12.98;5.82;;;;;;;;;;5080749;28;20047;-75
2023/07/22 05:23:11;;;;;;;19.00;4.88;;;;;;;;;;5082841;28;20043;-75
2023/07/22 05:25:38;;;;;;;10.15;4.85;;;;;;;;;;5081090;28;20051;-75
2023/07/22 05:28:04;;;;;;;10.05;4.82;;;;;;;;;;5082936;28;20044;-75
2023/07/22 05:30:30;;;;;;;11.05;4.65;;;;;;;;;;5066407;28;20055;-75
2023/07/22 05:32:56;;;;;;;11.48;4.97;;;;;;;;;;5080752;28;20264;-74
2023/07/22 05:35:22;;;;;;;10.48;5.10;;;;;;;;;;5082673;28;20389;-75
2023/07/22 05:37:49;;;;;;;12.68;5.03;;;;;;;;;;5078304;28;22101;-75
2023/07/22 05:40:15;;;;;;;10.05;4.82;;;;;;;;;;5079378;28;20086;-75
2023/07/22 05:42:41;;;;;;;14.63;4.40;;;;;;;;;;5079996;27;20048;-75
2023/07/22 05:45:07;;;;;;;10.93;5.18;;;;;;;;;;5098318;27;20375;-75
2023/07/22 05:47:33;;;;;;;11.25;5.00;;;;;;;;;;5079935;28;20135;-75
2023/07/22 05:49:59;;;;;;;8.73;5.05;;;;;;;;;;5077273;28;20077;-75
2023/07/22 05:52:25;;;;;;;10.65;5.53;;;;;;;;;;5059670;28;20084;-75
2023/07/22 05:54:52;;;;;;;12.55;5.55;;;;;;;;;;5085884;27;20095;-75
2023/07/22 05:57:18;;;;;;;10.68;5.07;;;;;;;;;;5086888;27;20232;-75
2023/07/22 05:59:44;;;;;;;14.73;5.30;;;;;;;;;;5104831;27;20055;-75
2023/07/22 06:02:10;;;;;;;13.13;5.35;;;;;;;;;;5105240;27;20143;-74
2023/07/22 06:04:36;;;;;;;11.88;5.78;;;;;;;;;;5089320;27;20034;-74
2023/07/22 06:07:02;;;;;;;9.10;5.38;;;;;;;;;;5087728;27;20727;-75
2023/07/22 06:09:28;;;;;;;11.77;5.53;;;;;;;;;;5086179;27;20035;-75
2023/07/22 06:11:54;;;;;;;11.30;5.30;;;;;;;;;;5103473;27;21692;-75
2023/07/22 06:14:20;;;;;;;10.77;6.20;;;;;;;;;;5104434;27;20043;-75
2023/07/22 06:16:47;;;;;;;8.68;5.80;;;;;;;;;;5103224;27;20076;-76
2023/07/22 06:19:13;;;;;;;10.60;6.60;;;;;;;;;;5065567;28;20731;-75
2023/07/22 06:21:39;;;;;;;8.75;6.15;;;;;;;;;;5083795;28;20088;-75
2023/07/22 06:24:06;;;;;;;9.93;6.25;;;;;;;;;;5097564;27;21629;-70
2023/07/22 06:26:32;;;;;;;12.93;6.82;;;;;;;;;;5080148;28;20047;-70
2023/07/22 06:28:58;;;;;;;9.27;6.15;;;;;;;;;;5096396;27;20035;-70
2023/07/22 06:31:24;;;;;;;10.63;6.47;;;;;;;;;;5101912;27;20039;-70
2023/07/22 06:33:50;;;;;;;10.52;6.35;;;;;;;;;;5079627;28;20051;-70
2023/07/22 06:36:17;;;;;;;15.32;6.70;;;;;;;;;;5066644;28;20479;-70
2023/07/22 06:38:43;;;;;;;9.68;6.57;;;;;;;;;;5098072;27;20047;-70
2023/07/22 06:41:09;;;;;;;15.13;7.93;;;;;;;;;;5095306;27;20096;-70
2023/07/22 06:43:35;;;;;;;13.25;7.40;;;;;;;;;;5080757;28;20046;-70
2023/07/22 06:46:01;;;;;;;11.07;7.28;;;;;;;;;;5096482;27;20096;-69
2023/07/22 06:48:28;;;;;;;13.20;8.48;;;;;;;;;;5099809;27;20062;-70
2023/07/22 06:50:54;;;;;;;17.80;8.32;;;;;;;;;;5098298;27;20046;-69
2023/07/22 06:53:20;;;;;;;12.70;7.97;;;;;;;;;;5100052;27;20053;-70
2023/07/22 06:55:51;;;;;;;10.60;6.97;;;;;;;;;;5083359;28;20062;-70
2023/07/22 06:58:17;;;;;;;10.40;8.15;;;;;;;;;;5103593;27;20106;-70
2023/07/22 07:00:43;;;;;;;11.98;7.20;;;;;;;;;;5102242;27;20464;-70
2023/07/22 07:03:09;;;;;;;11.35;7.18;;;;;;;;;;5106175;27;20039;-71
2023/07/22 07:05:35;;;;;;;13.65;7.50;;;;;;;;;;5108029;27;20051;-70
2023/07/22 07:08:01;;;;;;;9.40;7.35;;;;;;;;;;5081712;27;20491;-70
2023/07/22 07:10:27;;;;;;;9.00;6.50;;;;;;;;;;5100486;27;20078;-70
2023/07/22 07:12:53;;;;;;;11.10;7.60;;;;;;;;;;5081477;27;20070;-71
2023/07/22 07:15:19;;;;;;;11.38;7.63;;;;;;;;;;5091816;27;20051;-71
2023/07/22 07:17:45;;;;;;;11.80;7.88;;;;;;;;;;5109770;27;20043;-71
2023/07/22 07:20:11;;;;;;;14.20;7.90;;;;;;;;;;5092090;27;20050;-71
2023/07/22 07:22:37;;;;;;;13.00;8.05;;;;;;;;;;5110832;27;20047;-71
2023/07/22 07:25:04;;;;;;;21.38;8.57;;;;;;;;;;5109116;27;20039;-71
2023/07/22 07:27:30;;;;;;;14.00;8.13;;;;;;;;;;5090243;27;20387;-71
2023/07/22 07:29:56;;;;;;;14.68;8.32;;;;;;;;;;5108208;27;20574;-71
2023/07/22 07:32:23;;;;;;;16.20;8.02;;;;;;;;;;5107646;27;20126;-71
2023/07/22 07:34:50;;;;;;;16.58;8.63;;;;;;;;;;5091001;27;20043;-71
2023/07/22 07:37:16;;;;;;;12.55;8.77;;;;;;;;;;5108974;27;20047;-71
2023/07/22 07:39:42;;;;;;;12.02;8.98;;;;;;;;;;5109365;27;20042;-71
2023/07/22 07:42:08;;;;;;;13.90;9.15;;;;;;;;;;5110587;27;20046;-72
2023/07/22 07:44:34;;;;;;;14.40;8.77;;;;;;;;;;5108360;27;20040;-71
2023/07/22 07:47:00;;;;;;;13.98;8.75;;;;;;;;;;5104423;27;20036;-71
2023/07/22 07:49:26;;;;;;;13.93;9.07;;;;;;;;;;5108177;27;20043;-71
2023/07/22 07:51:52;;;;;;;15.50;8.88;;;;;;;;;;5110384;27;20150;-72
2023/07/22 07:54:18;;;;;;;15.27;9.63;;;;;;;;;;5090546;27;20047;-72
2023/07/22 07:56:44;;;;;;;14.95;9.77;;;;;;;;;;5109356;27;20086;-70
2023/07/22 07:59:10;;;;;;;15.40;9.30;;;;;;;;;;5108804;27;20426;-70
2023/07/22 08:01:41;;;;;;;16.92;10.13;;;;;;;;;;5090033;27;20050;-70
2023/07/22 08:04:07;;;;;;;16.08;9.73;;;;;;;;;;5107656;27;20437;-70
2023/07/22 08:06:33;;;;;;;15.23;9.63;;;;;;;;;;5107062;27;20035;-70
2023/07/22 08:08:59;;;;;;;15.95;10.35;;;;;;;;;;5090937;27;20035;-70
2023/07/22 08:11:25;;;;;;;14.93;8.85;;;;;;;;;;5088367;27;20035;-70
2023/07/22 08:13:52;;;;;;;12.50;8.75;;;;;;;;;;5069610;27;20448;-70
2023/07/22 08:16:18;;;;;;;18.75;8.70;;;;;;;;;;5099421;27;20097;-68
2023/07/22 08:18:46;;;;;;;14.50;9.60;;;;;;;;;;5100589;27;20045;-70
2023/07/22 08:21:12;;;;;;;14.13;8.57;;;;;;;;;;5101635;27;20042;-70
2023/07/22 08:23:39;;;;;;;12.63;8.60;;;;;;;;;;5085424;27;20062;-70
2023/07/22 08:26:05;;;;;;;12.82;9.25;;;;;;;;;;5098301;27;20865;-74
2023/07/22 08:28:32;;;;;;;14.43;8.18;;;;;;;;;;5078289;27;20126;-74
2023/07/22 08:30:58;;;;;;;15.10;9.00;;;;;;;;;;5101139;27;20550;-74
2023/07/22 08:33:24;;;;;;;16.38;9.18;;;;;;;;;;5099145;27;20047;-74
2023/07/22 08:35:54;;;;;;;15.32;9.00;;;;;;;;;;5098713;27;20109;-72
2023/07/22 08:38:20;;;;;;;12.32;9.30;;;;;;;;;;5081550;27;20054;-73
2023/07/22 08:40:48;;;;;;;16.58;9.77;;;;;;;;;;5100810;27;20035;-73
2023/07/22 08:43:15;;;;;;;15.20;9.75;;;;;;;;;;5101483;27;20039;-73
2023/07/22 08:45:42;;;;;;;14.60;8.90;;;;;;;;;;5102129;27;20043;-73
2023/07/22 08:48:09;;;;;;;16.00;9.23;;;;;;;;;;5082477;27;20092;-73
2023/07/22 08:50:44;;;;;;;13.88;9.57;;;;;;;;;;5100422;27;20070;-73
2023/07/22 08:53:10;;;;;;;16.33;8.88;;;;;;;;;;5079745;27;20469;-74
2023/07/22 08:55:39;;;;;;;13.13;9.32;;;;;;;;;;5092897;27;20212;-73
2023/07/22 08:58:06;;;;;;;12.68;8.98;;;;;;;;;;5077250;28;20087;-73
2023/07/22 09:00:32;;;;;;;17.92;10.60;;;;;;;;;;5088756;27;20054;-73
2023/07/22 09:02:59;;;;;;;13.07;8.82;;;;;;;;;;5080141;28;20039;-73
2023/07/22 09:05:25;;;;;;;13.40;8.75;;;;;;;;;;5077658;28;20460;-73
2023/07/22 09:07:53;;;;;;;15.25;8.65;;;;;;;;;;5077109;28;20108;-73
2023/07/22 09:10:19;;;;;;;14.05;9.30;;;;;;;;;;5079178;28;20668;-73
2023/07/22 09:12:46;;;;;;;15.13;10.05;;;;;;;;;;5077234;27;22916;-73
2023/07/22 09:15:15;;;;;;;15.93;10.10;;;;;;;;;;5077631;28;20087;-73
2023/07/22 09:17:42;;;;;;;14.60;10.05;;;;;;;;;;5077563;28;20054;-73
2023/07/22 09:20:08;;;;;;;15.32;10.18;;;;;;;;;;5081458;28;20065;-73
2023/07/22 09:22:34;;;;;;;14.93;9.70;;;;;;;;;;5076232;28;20449;-73
2023/07/22 09:25:20;;;;;;;14.70;10.15;;;;;;;;;;5055068;28;20043;-72
2023/07/22 09:27:47;;;;;;;13.60;10.40;;;;;;;;;;5077779;28;20040;-72
2023/07/22 09:30:33;;;;;;;15.10;9.50;;;;;;;;;;5064236;28;20043;-72
2023/07/22 09:33:02;;;;;;;12.15;9.07;;;;;;;;;;5077674;27;20044;-73
2023/07/22 09:35:33;;;;;;;12.80;8.23;;;;;;;;;;5073489;28;20484;-73
2023/07/22 09:37:59;;;;;;;14.65;8.25;;;;;;;;;;5074443;28;21097;-72
2023/07/22 09:40:26;;;;;;;11.60;7.15;;;;;;;;;;5074756;27;20780;-76
2023/07/22 09:42:57;;;;;;;10.27;6.32;;;;;;;;;;5075636;27;20043;-76
2023/07/22 09:45:25;;;;;;;9.65;5.85;;;;;;;;;;5076726;28;20476;-75
2023/07/22 09:47:53;;;;;;;9.63;6.13;;;;;;;;;;5072571;28;20848;-75
2023/07/22 09:50:23;;;;;;;7.70;6.43;;;;;;;;;;5073690;27;20476;-75
2023/07/22 09:52:50;;;;;;;5.93;5.15;;;;;;;;;;5076497;28;20112;-75
2023/07/22 09:55:18;;;;;;;9.25;5.78;;;;;;;;;;5080679;27;20066;-75
2023/07/22 09:57:46;;;;;;;7.22;5.82;;;;;;;;;;5093102;27;20059;-74
2023/07/22 10:00:14;;;;;;;8.43;5.75;;;;;;;;;;5062173;28;20502;-75
2023/07/22 10:02:42;;;;;;;11.90;6.07;;;;;;;;;;5097302;27;20075;-74
2023/07/22 10:05:09;;;;;;;7.38;5.53;;;;;;;;;;5093042;27;20567;-75
2023/07/22 10:07:36;;;;;;;6.78;5.43;;;;;;;;;;5079577;27;20108;-75
2023/07/22 10:10:02;;;;;;;6.85;5.30;;;;;;;;;;5075777;27;20035;-75
2023/07/22 10:12:28;;;;;;;7.60;5.15;;;;;;;;;;5073729;27;20047;-75
2023/07/22 10:14:54;;;;;;;8.98;5.70;;;;;;;;;;5075207;27;21606;-75
2023/07/22 10:17:21;;;;;;;7.78;6.07;;;;;;;;;;5080103;27;20046;-76
2023/07/22 10:19:47;;;;;;;11.20;7.03;;;;;;;;;;5080135;27;20475;-75
2023/07/22 10:22:13;;;;;;;12.55;6.88;;;;;;;;;;5098383;27;20074;-75
2023/07/22 10:24:40;;;;;;;16.02;6.85;;;;;;;;;;5095714;27;20035;-74
2023/07/22 10:27:06;;;;;;;13.68;7.88;;;;;;;;;;5095943;27;20039;-74
2023/07/22 10:29:34;;;;;;;12.95;7.55;;;;;;;;;;5078262;28;20134;-74
2023/07/22 10:32:00;;;;;;;9.73;7.70;;;;;;;;;;5096640;27;20375;-74
2023/07/22 10:34:26;;;;;;;15.18;8.95;;;;;;;;;;5080132;28;20518;-74
2023/07/22 10:36:52;;;;;;;21.63;10.93;;;;;;;;;;5099910;27;20130;-75
2023/07/22 10:39:29;;;;;;;21.25;10.73;;;;;;;;;;5102851;27;21777;-74
2023/07/22 10:42:04;;;;;;;19.67;12.15;;;;;;;;;;5100624;27;20509;-75
2023/07/22 10:44:32;;;;;;;20.75;11.68;;;;;;;;;;5081688;27;20035;-75
2023/07/22 10:46:58;;;;;;;20.13;13.57;;;;;;;;;;5079357;27;20039;-74
2023/07/22 10:49:25;;;;;;;14.82;10.25;;;;;;;;;;5099758;27;20035;-74
2023/07/22 10:51:52;;;;;;;13.30;8.10;;;;;;;;;;5099273;27;20043;-74
2023/07/22 10:54:35;;;;;;;15.50;9.23;;;;;;;;;;5082835;27;20085;-74
2023/07/22 10:57:23;;;;;;;13.10;9.18;;;;;;;;;;5082706;27;20143;-74
2023/07/22 10:59:50;;;;;;;15.02;8.27;;;;;;;;;;5100635;27;20066;-75
2023/07/22 11:02:26;;;;;;;15.82;9.75;;;;;;;;;;5099671;27;20083;-75
2023/07/22 11:04:52;;;;;;;18.52;9.52;;;;;;;;;;5103281;27;20120;-75
2023/07/22 11:07:30;;;;;;;17.27;9.80;;;;;;;;;;5085676;27;20050;-74
2023/07/22 11:09:56;;;;;;;18.90;10.25;;;;;;;;;;5086138;27;20047;-75
2023/07/22 11:12:25;;;;;;;21.55;11.77;;;;;;;;;;5100606;27;20074;-75
2023/07/22 11:14:52;;;;;;;22.95;12.95;;;;;;;;;;5079441;27;20066;-75
2023/07/22 11:17:19;;;;;;;22.95;13.40;;;;;;;;;;5085021;27;20050;-75
2023/07/22 11:19:45;;;;;;;19.20;11.07;;;;;;;;;;5101213;27;20082;-74
2023/07/22 11:22:12;;;;;;;23.33;14.40;;;;;;;;;;5075989;27;20075;-74
2023/07/22 11:24:38;;;;;;;23.27;12.82;;;;;;;;;;5085559;27;20092;-74
2023/07/22 11:27:05;;;;;;;25.88;14.30;;;;;;;;;;5101664;27;20031;-76
2023/07/22 11:29:31;;;;;;;19.85;12.13;;;;;;;;;;5084075;27;20047;-76
2023/07/22 11:31:57;;;;;;;20.80;12.05;;;;;;;;;;5089979;27;20047;-76
2023/07/22 11:34:24;;;;;;;24.48;12.63;;;;;;;;;;5101087;27;20623;-76
2023/07/22 11:36:51;;;;;;;18.40;11.82;;;;;;;;;;5103080;27;20439;-76
2023/07/22 11:39:18;;;;;;;17.52;11.25;;;;;;;;;;5104690;27;20043;-76
2023/07/22 11:41:45;;;;;;;21.75;11.80;;;;;;;;;;5080146;27;20043;-77
2023/07/22 11:44:13;;;;;;;15.57;9.88;;;;;;;;;;5084738;27;20088;-77
2023/07/22 11:46:59;;;;;;;16.38;10.23;;;;;;;;;;5082374;27;20048;-75
2023/07/22 11:49:25;;;;;;;22.08;11.52;;;;;;;;;;5082744;27;20520;-75
2023/07/22 11:51:52;;;;;;;17.17;11.35;;;;;;;;;;5081104;27;20061;-75
2023/07/22 11:54:18;;;;;;;15.38;11.38;;;;;;;;;;5082639;27;20108;-75
2023/07/22 11:56:44;;;;;;;19.67;13.00;;;;;;;;;;5082509;27;20539;-76
2023/07/22 11:59:11;;;;;;;19.80;11.63;;;;;;;;;;5078866;27;20204;-75
2023/07/22 12:01:37;;;;;;;18.50;11.95;;;;;;;;;;5102056;27;20039;-76
2023/07/22 12:04:09;;;;;;;17.52;11.52;;;;;;;;;;5065980;27;20488;-76
2023/07/22 12:06:35;;;;;;;18.38;11.52;;;;;;;;;;5094852;27;20230;-75
2023/07/22 12:09:01;;;;;;;19.08;11.55;;;;;;;;;;5099827;27;20050;-75
2023/07/22 12:11:31;;;;;;;13.07;9.52;;;;;;;;;;5081894;27;20039;-75
2023/07/22 12:14:13;;;;;;;15.25;11.40;;;;;;;;;;5099448;27;20468;-75
2023/07/22 12:16:40;;;;;;;17.95;10.82;;;;;;;;;;5099737;27;20134;-77
2023/07/22 12:19:07;;;;;;;13.02;10.10;;;;;;;;;;5101423;27;20054;-76
2023/07/22 12:21:33;;;;;;;13.15;10.13;;;;;;;;;;5100146;27;20075;-76
2023/07/22 12:23:59;;;;;;;16.25;10.68;;;;;;;;;;5081055;27;20483;-75
2023/07/22 12:26:26;;;;;;;14.77;10.43;;;;;;;;;;5064817;27;20458;-76
2023/07/22 12:28:52;;;;;;;13.45;10.48;;;;;;;;;;5082179;27;20043;-75
2023/07/22 12:31:18;;;;;;;14.13;10.10;;;;;;;;;;5099012;27;20079;-77
2023/07/22 12:33:45;;;;;;;17.35;11.43;;;;;;;;;;5101446;27;20039;-76
2023/07/22 12:36:11;;;;;;;14.27;11.48;;;;;;;;;;5083824;27;20050;-76
2023/07/22 12:38:37;;;;;;;15.93;10.73;;;;;;;;;;5080832;27;20382;-75
2023/07/22 12:41:04;;;;;;;14.25;11.57;;;;;;;;;;5099823;27;20148;-75
2023/07/22 12:43:30;;;;;;;14.93;12.05;;;;;;;;;;5077646;27;20187;-75
2023/07/22 12:45:56;;;;;;;16.58;12.43;;;;;;;;;;5100418;27;20850;-75
2023/07/22 12:48:24;;;;;;;10.77;9.20;;;;;;;;;;5083554;27;20043;-75
2023/07/22 12:50:50;;;;;;;15.38;11.30;;;;;;;;;;5098638;27;20039;-77
2023/07/22 12:53:16;;;;;;;15.40;12.55;;;;;;;;;;5079100;27;20054;-77
2023/07/22 12:55:42;;;;;;;16.05;12.35;;;;;;;;;;5081450;27;20570;-77
2023/07/22 12:58:08;;;;;;;16.50;12.52;;;;;;;;;;5080137;27;20946;-77
2023/07/22 13:00:34;;;;;;;19.40;14.90;;;;;;;;;;5062419;27;20062;-78
2023/07/22 13:03:00;;;;;;;25.08;16.40;;;;;;;;;;5081245;27;20047;-77
2023/07/22 13:05:27;;;;;;;23.00;16.20;;;;;;;;;;5079895;27;20359;-79
2023/07/22 13:07:53;;;;;;;24.60;16.98;;;;;;;;;;5098836;27;20418;-79
2023/07/22 13:10:20;;;;;;;24.92;16.65;;;;;;;;;;5047652;27;20039;-79
2023/07/22 13:12:46;;;;;;;25.65;18.63;;;;;;;;;;5079995;27;20050;-79
2023/07/22 13:15:12;;;;;;;30.95;20.38;;;;;;;;;;5081264;27;20047;-77
2023/07/22 13:17:38;;;;;;;30.77;21.20;;;;;;;;;;5077002;27;20035;-78
2023/07/22 13:20:08;;;;;;;28.50;21.27;;;;;;;;;;5079065;27;20047;-77
2023/07/22 13:22:36;;;;;;;29.60;20.52;;;;;;;;;;5081150;27;20073;-77
2023/07/22 13:25:03;;;;;;;24.17;19.02;;;;;;;;;;5065813;27;20045;-77
2023/07/22 13:27:29;;;;;;;23.20;18.50;;;;;;;;;;5100150;27;20533;-77
2023/07/22 13:29:55;;;;;;;25.40;18.42;;;;;;;;;;5084517;27;20051;-77
2023/07/22 13:32:21;;;;;;;23.00;17.83;;;;;;;;;;5066423;27;20497;-77
2023/07/22 13:34:47;;;;;;;25.00;17.67;;;;;;;;;;5098851;27;20039;-77
2023/07/22 13:37:13;;;;;;;18.55;15.95;;;;;;;;;;5096825;27;20050;-77
2023/07/22 13:39:39;;;;;;;17.50;14.02;;;;;;;;;;5087926;27;20061;-77
2023/07/22 13:42:06;;;;;;;16.02;13.52;;;;;;;;;;5089269;27;20093;-77
2023/07/22 13:44:32;;;;;;;14.65;11.48;;;;;;;;;;5088397;27;20050;-77
2023/07/22 13:46:58;;;;;;;16.13;11.05;;;;;;;;;;5088002;27;20139;-77
2023/07/22 13:49:24;;;;;;;17.63;11.40;;;;;;;;;;5088172;27;20050;-77
2023/07/22 13:51:50;;;;;;;13.63;11.95;;;;;;;;;;5106954;27;20045;-77
2023/07/22 13:54:16;;;;;;;12.35;11.02;;;;;;;;;;5104751;27;20100;-77
2023/07/22 13:56:43;;;;;;;11.32;8.73;;;;;;;;;;5105571;27;21737;-77
2023/07/22 13:59:09;;;;;;;11.18;9.38;;;;;;;;;;5105589;27;20124;-77
2023/07/22 14:01:36;;;;;;;10.18;9.13;;;;;;;;;;5105971;27;20042;-77
2023/07/22 14:04:02;;;;;;;9.25;7.57;;;;;;;;;;5105637;27;20751;-77
2023/07/22 14:06:28;;;;;;;11.52;8.95;;;;;;;;;;5086641;27;20047;-77
2023/07/22 14:08:54;;;;;;;13.00;9.13;;;;;;;;;;5104721;27;20083;-76
2023/07/22 14:11:20;;;;;;;13.48;9.15;;;;;;;;;;5086516;27;20069;-76
2023/07/22 14:13:46;;;;;;;11.43;8.63;;;;;;;;;;5105979;27;20410;-77
2023/07/22 14:16:12;;;;;;;10.80;8.98;;;;;;;;;;5104994;27;20043;-76
2023/07/22 14:18:38;;;;;;;10.02;8.77;;;;;;;;;;5069514;28;20074;-76
2023/07/22 14:21:04;;;;;;;10.18;8.73;;;;;;;;;;5106101;27;20525;-76
2023/07/22 14:23:30;;;;;;;10.00;9.00;;;;;;;;;;5104645;27;20039;-76
2023/07/22 14:25:56;;;;;;;11.57;10.35;;;;;;;;;;5104365;27;20050;-76